Station: ELLX - 19/04/2018 09:20Z (il y a 31 minutes)
ELLX 190920Z VRB05KT CAVOK 21/07 Q1028 NOSIG
Vent de direction variable: 5 kt
Visibilité > 10 km et plafond haut ou pas de nuages significatifs
Température: +21ºC - Point de rosée: +07ºC - QNH: 1028 hPa
Pas de changement significatif prévu dans les 2 heures qui suivent l'observation